createdAt,value
2016-12-18T00:01:01.183Z,2.66
2016-12-18T00:03:54.968Z,2.68
2016-12-18T00:12:36.442Z,2.70
2016-12-18T00:21:17.905Z,2.74
2016-12-18T00:24:11.750Z,2.77
2016-12-18T00:27:05.566Z,2.77
2016-12-18T00:29:59.335Z,2.80
2016-12-18T00:32:53.167Z,2.81
2016-12-18T00:35:46.937Z,2.82
2016-12-18T00:38:40.739Z,2.82
2016-12-18T00:41:34.453Z,2.82
2016-12-18T00:44:28.322Z,2.82
2016-12-18T00:47:22.036Z,2.83
2016-12-18T00:50:15.781Z,2.84
2016-12-18T00:53:09.617Z,2.85
2016-12-18T01:01:51.218Z,2.87
2016-12-18T01:07:39.047Z,2.91
2016-12-18T01:10:33.060Z,2.93
2016-12-18T01:16:20.845Z,2.94
2016-12-18T01:19:14.679Z,2.96
2016-12-18T01:22:09.581Z,2.97
2016-12-18T01:27:56.353Z,3.02
2016-12-18T01:30:50.300Z,3.04
2016-12-18T01:33:44.128Z,3.03
2016-12-18T01:39:31.910Z,3.05
2016-12-18T01:45:19.514Z,3.08
2016-12-18T01:48:13.536Z,3.12
2016-12-18T01:51:07.223Z,3.14
2016-12-18T01:59:48.839Z,3.22
2016-12-18T02:02:42.714Z,3.24
2016-12-18T02:08:30.496Z,3.28
2016-12-18T02:11:24.457Z,3.30
2016-12-18T02:20:06.211Z,3.38
2016-12-18T02:23:00.111Z,3.41
2016-12-18T02:25:54.163Z,3.46
2016-12-18T02:28:48.108Z,3.47
2016-12-18T02:31:41.892Z,3.49
2016-12-18T02:43:17.335Z,3.58
2016-12-18T02:49:05.010Z,3.61
2016-12-18T02:54:52.764Z,3.65
2016-12-18T03:00:40.352Z,3.69
2016-12-18T03:03:34.312Z,3.70
2016-12-18T03:06:28.200Z,3.71
2016-12-18T03:09:22.874Z,3.75
2016-12-18T03:12:15.778Z,3.77
2016-12-18T03:18:03.530Z,3.85
2016-12-18T03:20:57.284Z,3.85
2016-12-18T03:23:51.305Z,3.85
2016-12-18T03:26:45.245Z,3.86
2016-12-18T03:32:32.990Z,3.91
2016-12-18T03:41:14.733Z,3.96
2016-12-18T03:47:02.544Z,3.99
2016-12-18T03:49:56.483Z,4.03
2016-12-18T03:52:50.390Z,4.04
2016-12-18T03:55:44.635Z,4.07
2016-12-18T03:58:38.528Z,4.10
2016-12-18T04:01:32.444Z,4.11
2016-12-18T04:07:20.333Z,4.13
2016-12-18T04:10:14.319Z,4.15
2016-12-18T04:16:02.153Z,4.20
2016-12-18T04:21:50.201Z,4.24
2016-12-18T04:24:44.009Z,4.25
2016-12-18T04:27:38.520Z,4.26
2016-12-18T04:33:26.364Z,4.28
2016-12-18T04:39:14.324Z,4.32
2016-12-18T04:42:08.419Z,4.33
2016-12-18T04:45:02.281Z,4.35
2016-12-18T04:47:56.182Z,4.37
2016-12-18T04:50:50.201Z,4.39
2016-12-18T04:59:32.080Z,4.46
2016-12-18T05:02:26.066Z,4.48
2016-12-18T05:05:20.882Z,4.52
2016-12-18T05:11:07.794Z,4.55
2016-12-18T05:14:01.801Z,4.57
2016-12-18T05:16:56.677Z,4.58
2016-12-18T05:19:49.613Z,4.57
2016-12-18T05:25:37.627Z,4.62
2016-12-18T05:34:19.471Z,4.70
2016-12-18T05:37:13.460Z,4.70
2016-12-18T05:40:07.909Z,4.72
2016-12-18T05:43:02.016Z,4.72
2016-12-18T05:45:56.016Z,4.72
2016-12-18T05:48:49.928Z,4.75
2016-12-18T05:51:43.937Z,4.77
2016-12-18T05:54:37.873Z,4.81
2016-12-18T05:57:31.693Z,4.82
2016-12-18T06:00:25.760Z,4.84
2016-12-18T06:03:19.752Z,4.87
2016-12-18T06:06:13.687Z,4.86
2016-12-18T06:09:07.668Z,4.87
2016-12-18T06:14:55.741Z,4.88
2016-12-18T06:17:49.786Z,4.90
2016-12-18T06:23:37.850Z,4.94
2016-12-18T06:29:25.541Z,4.93
2016-12-18T06:32:19.467Z,4.95
2016-12-18T06:35:13.468Z,4.96
2016-12-18T06:46:49.600Z,4.99
2016-12-18T06:49:43.633Z,5.02
2016-12-18T06:55:31.655Z,5.03
2016-12-18T06:58:25.611Z,5.03
2016-12-18T07:04:13.566Z,5.01
2016-12-18T07:07:07.451Z,5.02
2016-12-18T07:12:55.330Z,5.04
2016-12-18T07:18:43.259Z,5.09
2016-12-18T07:21:37.256Z,5.11
2016-12-18T07:24:31.216Z,5.10
2016-12-18T07:30:19.129Z,5.11
2016-12-18T07:33:13.063Z,5.14
2016-12-18T07:36:07.054Z,5.18
2016-12-18T07:39:00.982Z,5.19
2016-12-18T07:41:55.260Z,5.22
2016-12-18T07:47:43.458Z,5.23
2016-12-18T07:50:37.454Z,5.23
2016-12-18T07:53:31.393Z,5.24
2016-12-18T07:56:25.413Z,5.26
2016-12-18T07:59:19.388Z,5.26
2016-12-18T08:02:13.371Z,5.26
2016-12-18T08:08:01.359Z,5.30
2016-12-18T08:10:55.420Z,5.32
2016-12-18T08:13:49.324Z,5.35
2016-12-18T08:16:43.366Z,5.38
2016-12-18T08:25:26.599Z,5.39
2016-12-18T08:28:19.617Z,5.41
2016-12-18T08:31:13.644Z,5.43
2016-12-18T08:34:07.639Z,5.46
2016-12-18T08:37:01.578Z,5.49
2016-12-18T08:39:55.580Z,5.49
2016-12-18T08:42:49.648Z,5.49
2016-12-18T08:45:43.745Z,5.50
2016-12-18T08:51:31.665Z,5.54
2016-12-18T09:00:13.635Z,5.60
2016-12-18T09:03:08.028Z,5.63
2016-12-18T09:08:56.188Z,5.67
2016-12-18T09:11:50.343Z,5.69
2016-12-18T09:17:38.416Z,5.69
2016-12-18T09:20:32.402Z,5.69
2016-12-18T09:23:26.402Z,5.70
2016-12-18T09:29:14.458Z,5.73
2016-12-18T09:32:08.502Z,5.75
2016-12-18T09:35:02.691Z,5.77
2016-12-18T09:37:56.751Z,5.81
2016-12-18T09:40:50.735Z,5.79
2016-12-18T09:43:44.880Z,5.80
2016-12-18T09:46:38.949Z,5.80
2016-12-18T09:49:33.053Z,5.83
2016-12-18T09:52:27.203Z,5.86
2016-12-18T09:58:15.288Z,5.93
2016-12-18T10:01:09.391Z,5.98
2016-12-18T10:04:03.451Z,5.99
2016-12-18T10:06:57.544Z,6.01
2016-12-18T10:09:51.550Z,6.01
2016-12-18T10:12:45.532Z,6.02
2016-12-18T10:15:39.642Z,6.02
2016-12-18T10:18:33.685Z,6.02
2016-12-18T10:21:27.860Z,6.02
2016-12-18T10:24:21.894Z,6.03
2016-12-18T10:27:15.949Z,6.02
2016-12-18T10:30:10.068Z,6.03
2016-12-18T10:35:58.292Z,6.07
2016-12-18T10:38:52.396Z,6.07
2016-12-18T10:47:34.832Z,6.11
2016-12-18T10:50:29.042Z,6.11
2016-12-18T10:53:23.060Z,6.13
2016-12-18T10:56:17.186Z,6.12
2016-12-18T10:59:11.368Z,6.12
2016-12-18T11:02:05.480Z,6.14
2016-12-18T11:04:59.543Z,6.15
2016-12-18T11:07:53.633Z,6.17
2016-12-18T11:10:47.757Z,6.18
2016-12-18T11:13:41.981Z,6.18
2016-12-18T11:16:35.990Z,6.19
2016-12-18T11:19:29.981Z,6.19
2016-12-18T11:22:24.058Z,6.21
2016-12-18T11:25:18.169Z,6.23
2016-12-18T11:28:12.228Z,6.22
2016-12-18T11:36:54.790Z,6.24
2016-12-18T11:39:48.846Z,6.25
2016-12-18T11:42:43.046Z,6.28
2016-12-18T11:45:37.138Z,6.29
2016-12-18T11:48:31.342Z,6.32
2016-12-18T11:51:25.485Z,6.35
2016-12-18T11:54:19.545Z,6.40
2016-12-18T12:00:07.833Z,6.46
2016-12-18T12:03:01.856Z,6.47
2016-12-18T12:08:50.165Z,6.52
2016-12-18T12:11:44.373Z,6.53
2016-12-18T12:14:38.441Z,6.57
2016-12-18T12:17:32.521Z,6.61
2016-12-18T12:26:14.903Z,6.70
2016-12-18T12:29:09.119Z,6.70
2016-12-18T12:32:03.139Z,6.72
2016-12-18T12:40:45.816Z,6.81
2016-12-18T12:43:39.818Z,6.81
2016-12-18T12:49:28.066Z,6.78
2016-12-18T12:55:16.364Z,6.78
2016-12-18T12:58:10.436Z,6.79
2016-12-18T13:01:04.635Z,6.80
2016-12-18T13:03:58.705Z,6.82
2016-12-18T13:06:52.853Z,6.85
2016-12-18T13:09:46.967Z,6.86
2016-12-18T13:18:29.435Z,6.89
2016-12-18T13:21:23.575Z,6.90
2016-12-18T13:24:17.654Z,6.90
2016-12-18T13:27:11.785Z,6.90
2016-12-18T13:30:05.934Z,6.90
2016-12-18T13:33:00.117Z,6.92
2016-12-18T13:35:54.276Z,6.94
2016-12-18T13:38:48.357Z,6.95
2016-12-18T13:41:42.471Z,6.97
2016-12-18T13:44:36.678Z,6.99
2016-12-18T13:47:30.788Z,7.02
2016-12-18T13:50:24.854Z,7.01
2016-12-18T13:53:19.031Z,7.04
2016-12-18T13:56:13.254Z,7.03
2016-12-18T13:59:07.370Z,7.02
2016-12-18T14:02:01.669Z,7.04
2016-12-18T14:07:50.055Z,7.02
2016-12-18T14:10:44.261Z,7.02
2016-12-18T14:16:32.541Z,7.04
2016-12-18T14:19:26.709Z,7.06
2016-12-18T14:22:21.264Z,7.06
2016-12-18T14:25:15.480Z,7.06
2016-12-18T14:28:09.679Z,7.07
2016-12-18T14:33:57.962Z,7.07
2016-12-18T14:42:40.514Z,7.06
2016-12-18T14:48:29.475Z,7.02
2016-12-18T14:51:23.720Z,7.00
2016-12-18T14:57:11.969Z,6.98
2016-12-18T15:00:06.184Z,6.96
2016-12-18T15:03:00.419Z,6.93
2016-12-18T15:05:54.605Z,6.91
2016-12-18T15:11:42.840Z,6.90
2016-12-18T15:14:36.957Z,6.91
2016-12-18T15:17:30.948Z,6.90
2016-12-18T15:20:25.071Z,6.88
2016-12-18T15:23:19.194Z,6.86
2016-12-18T15:26:13.317Z,6.85
2016-12-18T15:29:07.276Z,6.83
2016-12-18T15:34:55.432Z,6.80
2016-12-18T15:37:49.507Z,6.80
2016-12-18T15:43:37.668Z,6.77
2016-12-18T15:46:31.792Z,6.77
2016-12-18T15:52:20.014Z,6.77
2016-12-18T15:55:14.264Z,6.78
2016-12-18T15:58:08.250Z,6.77
2016-12-18T16:03:56.571Z,6.77
2016-12-18T16:06:50.622Z,6.77
2016-12-18T16:09:44.746Z,6.76
2016-12-18T16:12:38.740Z,6.75
2016-12-18T16:15:33.012Z,6.75
2016-12-18T16:21:21.214Z,6.76
2016-12-18T16:24:15.265Z,6.75
2016-12-18T16:30:03.577Z,6.72
2016-12-18T16:32:57.651Z,6.70
2016-12-18T16:35:51.730Z,6.68
2016-12-18T16:38:45.674Z,6.66
2016-12-18T16:41:39.810Z,6.62
2016-12-18T16:44:33.885Z,6.60
2016-12-18T16:47:28.058Z,6.60
2016-12-18T16:50:22.114Z,6.59
2016-12-18T16:56:10.349Z,6.61
2016-12-18T16:59:04.398Z,6.63
2016-12-18T17:01:58.444Z,6.63
2016-12-18T17:04:52.476Z,6.65
2016-12-18T17:16:28.928Z,6.65
2016-12-18T17:25:11.137Z,6.64
2016-12-18T17:28:05.196Z,6.63
2016-12-18T17:30:59.273Z,6.61
2016-12-18T17:36:47.572Z,6.61
2016-12-18T17:42:35.764Z,6.59
2016-12-18T17:45:29.733Z,6.58
2016-12-18T17:48:23.720Z,6.56
2016-12-18T17:51:17.863Z,6.53
2016-12-18T17:54:11.916Z,6.49
2016-12-18T17:57:06.048Z,6.46
2016-12-18T18:00:00.131Z,6.45
2016-12-18T18:02:54.433Z,6.44
2016-12-18T18:05:48.431Z,6.45
2016-12-18T18:08:42.546Z,6.46
2016-12-18T18:11:36.720Z,6.47
2016-12-18T18:14:30.866Z,6.48
2016-12-18T18:17:24.821Z,6.50
2016-12-18T18:20:18.934Z,6.51
2016-12-18T18:23:13.152Z,6.54
2016-12-18T18:26:07.260Z,6.56
2016-12-18T18:29:01.883Z,6.58
2016-12-18T18:31:55.942Z,6.58
2016-12-18T18:34:50.066Z,6.57
2016-12-18T18:37:44.157Z,6.57
2016-12-18T18:43:32.406Z,6.59
2016-12-18T18:49:20.636Z,6.59
2016-12-18T18:52:14.769Z,6.59
2016-12-18T18:58:03.497Z,6.62
2016-12-18T19:00:57.567Z,6.64
2016-12-18T19:03:51.786Z,6.67
2016-12-18T19:06:45.890Z,6.66
2016-12-18T19:09:39.944Z,6.65
2016-12-18T19:12:33.972Z,6.65
2016-12-18T19:15:28.061Z,6.66
2016-12-18T19:21:16.302Z,6.67
2016-12-18T19:29:58.687Z,6.72
2016-12-18T19:32:52.739Z,6.72
2016-12-18T19:35:46.991Z,6.71
2016-12-18T19:38:41.188Z,6.70
2016-12-18T19:44:29.339Z,6.65
2016-12-18T19:47:23.465Z,6.67
2016-12-18T19:56:06.076Z,6.67
2016-12-18T19:59:00.163Z,6.66
2016-12-18T20:01:54.262Z,6.66
2016-12-18T20:04:48.343Z,6.60
2016-12-18T20:07:42.484Z,6.57
2016-12-18T20:10:36.548Z,6.54
2016-12-18T20:13:30.516Z,6.52
2016-12-18T20:19:18.781Z,6.52
2016-12-18T20:22:12.857Z,6.49
2016-12-18T20:25:07.006Z,6.49
2016-12-18T20:30:55.612Z,6.41
2016-12-18T20:33:49.722Z,6.36
2016-12-18T20:36:43.720Z,6.33
2016-12-18T20:39:37.786Z,6.28
2016-12-18T20:42:31.884Z,6.27
2016-12-18T20:45:25.858Z,6.26
2016-12-18T20:48:19.821Z,6.25
2016-12-18T20:54:08.848Z,6.27
2016-12-18T20:59:55.933Z,6.26
2016-12-18T21:05:44.023Z,6.17
2016-12-18T21:08:38.146Z,6.18
2016-12-18T21:11:32.081Z,6.17
2016-12-18T21:14:26.357Z,6.15
2016-12-18T21:17:20.437Z,6.14
2016-12-18T21:20:14.452Z,6.10
2016-12-18T21:26:02.531Z,6.05
2016-12-18T21:28:56.864Z,6.04
2016-12-18T21:31:50.837Z,6.03
2016-12-18T21:34:44.813Z,6.04
2016-12-18T21:37:38.880Z,6.05
2016-12-18T21:40:32.891Z,6.06
2016-12-18T21:46:21.062Z,6.05
2016-12-18T21:49:15.110Z,6.06
2016-12-18T21:52:09.090Z,6.09
2016-12-18T21:57:57.142Z,6.10
2016-12-18T22:00:51.066Z,6.12
2016-12-18T22:03:45.150Z,6.13
2016-12-18T22:09:33.177Z,6.19
2016-12-18T22:12:27.141Z,6.22
2016-12-18T22:21:09.117Z,6.22
2016-12-18T22:26:57.066Z,6.21
2016-12-18T22:32:44.882Z,6.21
2016-12-18T22:35:38.821Z,6.19
2016-12-18T22:38:32.840Z,6.18
2016-12-18T22:41:27.075Z,6.17
2016-12-18T22:44:21.054Z,6.16
2016-12-18T22:47:15.026Z,6.16
2016-12-18T22:50:09.098Z,6.18
2016-12-18T22:53:03.040Z,6.17
2016-12-18T22:58:51.052Z,6.14
2016-12-18T23:04:39.108Z,6.18
2016-12-18T23:13:21.277Z,6.17
2016-12-18T23:19:09.302Z,6.11
2016-12-18T23:22:03.444Z,6.08
2016-12-18T23:24:57.364Z,6.04
2016-12-18T23:33:39.570Z,6.07
2016-12-18T23:39:27.833Z,6.00
2016-12-18T23:42:21.822Z,5.97
2016-12-18T23:45:16.175Z,5.96
2016-12-18T23:48:10.090Z,5.95
2016-12-18T23:51:04.035Z,5.96
2016-12-18T23:53:57.894Z,5.97
2016-12-18T23:56:51.953Z,6.00
2016-12-18T23:59:45.912Z,6.02
